Time;durP1;ratioP1;P1;durP2;ratioP2;P2;SDS_P1;SDS_P2;PMS_P1;PMS_P2;Temp;Humidity;BMP_temperature;BMP_pressure;BME280_temperature;BME280_humidity;BME280_pressure;Samples;Min_cycle;Max_cycle;Signal;HPM_P1;HPM_P2
2022/09/17 00:01:37;;;;;;;0.00;0.00;;;11.50;74.30;;;;;;5026888;28;20083;-79
2022/09/17 00:04:03;;;;;;;0.13;0.10;;;11.40;74.10;;;;;;5025718;28;20061;-79
2022/09/17 00:06:34;;;;;;;0.00;0.00;;;11.30;74.00;;;;;;5025604;28;20401;-74
2022/09/17 00:09:00;;;;;;;0.00;0.00;;;11.20;73.80;;;;;;5026690;28;20084;-79
2022/09/17 00:11:29;;;;;;;0.00;0.00;;;11.10;73.80;;;;;;5008987;28;20070;-78
2022/09/17 00:13:56;;;;;;;0.00;0.00;;;11.00;73.80;;;;;;5026821;28;20044;-78
2022/09/17 00:16:43;;;;;;;0.00;0.00;;;10.90;73.80;;;;;;5025353;28;20474;-79
2022/09/17 00:19:15;;;;;;;0.00;0.00;;;10.80;73.90;;;;;;5026732;28;20037;-79
2022/09/17 00:21:41;;;;;;;0.00;0.00;;;10.80;73.90;;;;;;5026618;28;20048;-79
2022/09/17 00:24:10;;;;;;;0.00;0.00;;;10.70;73.90;;;;;;5026576;28;20448;-79
2022/09/17 00:26:35;;;;;;;0.00;0.00;;;10.60;73.80;;;;;;5009435;28;20045;-79
2022/09/17 00:29:02;;;;;;;0.00;0.00;;;10.60;73.80;;;;;;5025238;28;20132;-78
2022/09/17 00:31:29;;;;;;;0.00;0.00;;;10.50;73.80;;;;;;5030171;28;20030;-78
2022/09/17 00:33:55;;;;;;;0.00;0.00;;;10.50;73.90;;;;;;5028725;28;20029;-78
2022/09/17 00:36:21;;;;;;;0.00;0.00;;;10.50;74.10;;;;;;5012328;28;20140;-79
2022/09/17 00:38:48;;;;;;;;;;;10.50;74.30;;;;;;5029003;28;20033;-78
2022/09/17 00:41:14;;;;;;;0.00;0.00;;;10.40;74.30;;;;;;5028714;28;19905;-78
2022/09/17 00:43:52;;;;;;;0.00;0.00;;;10.40;74.30;;;;;;5011947;28;20548;-78
2022/09/17 00:46:35;;;;;;;0.00;0.00;;;10.40;74.40;;;;;;5029041;28;20140;-79
2022/09/17 00:49:32;;;;;;;0.00;0.00;;;10.40;74.40;;;;;;5029696;28;20052;-76
2022/09/17 00:52:03;;;;;;;0.00;0.00;;;10.30;74.40;;;;;;5029967;28;20021;-79
2022/09/17 00:54:29;;;;;;;0.00;0.00;;;10.30;74.50;;;;;;5029727;28;20026;-79
2022/09/17 00:56:56;;;;;;;0.00;0.00;;;10.20;74.50;;;;;;5028498;28;20029;-79
2022/09/17 00:59:23;;;;;;;0.00;0.00;;;10.20;74.70;;;;;;5012005;28;20390;-77
2022/09/17 01:01:48;;;;;;;0.00;0.00;;;10.20;74.70;;;;;;5028847;28;20105;-79
2022/09/17 01:04:19;;;;;;;0.00;0.00;;;10.30;74.60;;;;;;4995876;28;20617;-78
2022/09/17 01:07:09;;;;;;;0.00;0.00;;;10.30;74.40;;;;;;5028395;28;20033;-79
2022/09/17 01:09:49;;;;;;;0.00;0.00;;;10.30;74.20;;;;;;5029964;28;20030;-79
2022/09/17 01:12:35;;;;;;;0.00;0.00;;;10.40;74.20;;;;;;5028514;28;20134;-79
2022/09/17 01:15:08;;;;;;;0.00;0.00;;;10.30;74.10;;;;;;5029801;28;20492;-79
2022/09/17 01:17:58;;;;;;;0.00;0.00;;;10.40;74.10;;;;;;5029672;28;20021;-79
2022/09/17 01:20:35;;;;;;;0.00;0.00;;;10.30;74.00;;;;;;5029527;28;20036;-79
2022/09/17 01:23:23;;;;;;;0.00;0.00;;;10.30;73.90;;;;;;5029732;28;20074;-78
2022/09/17 01:25:57;;;;;;;;;;;10.20;73.60;;;;;;5030027;28;20029;-78
2022/09/17 01:28:49;;;;;;;0.00;0.00;;;10.10;73.50;;;;;;5029274;28;19954;-79
2022/09/17 01:31:35;;;;;;;0.00;0.00;;;10.00;73.50;;;;;;5024790;28;20478;-79
2022/09/17 01:34:04;;;;;;;0.00;0.00;;;9.80;73.50;;;;;;5027285;28;20125;-79
2022/09/17 01:36:38;;;;;;;0.00;0.00;;;9.70;73.80;;;;;;5029224;28;20098;-79
2022/09/17 01:39:26;;;;;;;0.00;0.00;;;9.60;74.10;;;;;;5027890;28;20374;-79
2022/09/17 01:41:51;;;;;;;;;;;9.60;74.30;;;;;;5029277;28;20021;-79
2022/09/17 01:44:40;;;;;;;0.00;0.00;;;9.60;74.30;;;;;;5027767;28;20315;-79
2022/09/17 01:47:33;;;;;;;0.00;0.00;;;9.60;74.10;;;;;;5029021;28;20410;-79
2022/09/17 01:50:11;;;;;;;0.00;0.00;;;9.70;74.10;;;;;;5028812;28;20130;-78
2022/09/17 01:52:40;;;;;;;0.00;0.00;;;9.70;74.00;;;;;;5027837;28;20028;-79
2022/09/17 01:55:12;;;;;;;0.00;0.00;;;9.70;74.10;;;;;;5029034;28;20060;-79
2022/09/17 01:57:44;;;;;;;0.00;0.00;;;9.60;74.20;;;;;;5027611;28;20103;-79
2022/09/17 02:00:16;;;;;;;0.00;0.00;;;9.60;74.40;;;;;;5027841;28;20115;-78
2022/09/17 02:02:41;;;;;;;0.00;0.00;;;9.60;74.40;;;;;;5027394;28;20053;-78
2022/09/17 02:05:16;;;;;;;0.00;0.00;;;9.70;74.40;;;;;;5027420;28;20060;-79
2022/09/17 02:07:52;;;;;;;0.00;0.00;;;9.70;74.30;;;;;;5027288;28;20463;-78
2022/09/17 02:10:22;;;;;;;0.00;0.00;;;9.80;74.20;;;;;;5027230;28;20395;-79
2022/09/17 02:13:12;;;;;;;0.00;0.00;;;9.80;74.10;;;;;;5027340;28;20025;-78
2022/09/17 02:15:42;;;;;;;0.00;0.00;;;9.80;74.00;;;;;;5026996;28;20438;-79
2022/09/17 02:18:14;;;;;;;0.00;0.00;;;9.80;73.90;;;;;;5028449;28;20433;-79
2022/09/17 02:20:47;;;;;;;0.00;0.00;;;9.80;73.80;;;;;;5028268;28;20101;-78
2022/09/17 02:23:28;;;;;;;0.00;0.00;;;9.70;73.70;;;;;;5027059;28;20079;-79
2022/09/17 02:26:08;;;;;;;0.00;0.00;;;9.60;73.70;;;;;;5028284;28;20021;-78
2022/09/17 02:28:47;;;;;;;0.00;0.00;;;9.60;73.70;;;;;;5026922;28;20448;-78
2022/09/17 02:31:13;;;;;;;0.00;0.00;;;9.50;73.80;;;;;;5028369;28;20025;-78
2022/09/17 02:33:42;;;;;;;0.00;0.00;;;9.50;74.00;;;;;;5026961;28;20021;-79
2022/09/17 02:36:08;;;;;;;0.00;0.00;;;9.50;74.20;;;;;;5028137;28;20096;-78
2022/09/17 02:38:34;;;;;;;0.00;0.00;;;9.40;74.30;;;;;;5028078;28;20116;-79
2022/09/17 02:41:13;;;;;;;0.00;0.00;;;9.40;74.40;;;;;;5010421;28;20034;-78
2022/09/17 02:43:50;;;;;;;0.00;0.00;;;9.40;74.40;;;;;;5028304;28;20032;-79
2022/09/17 02:46:37;;;;;;;0.00;0.00;;;9.40;74.40;;;;;;5028098;28;20032;-79
2022/09/17 02:49:42;;;;;;;0.00;0.00;;;9.30;74.40;;;;;;5027798;28;20129;-78
2022/09/17 02:52:20;;;;;;;0.00;0.00;;;9.30;74.50;;;;;;5008466;28;20044;-78
2022/09/17 02:55:15;;;;;;;0.00;0.00;;;9.30;74.60;;;;;;5027017;28;20010;-79
2022/09/17 02:57:58;;;;;;;0.00;0.00;;;9.30;74.70;;;;;;5026524;28;20515;-79
2022/09/17 03:00:27;;;;;;;0.00;0.00;;;9.30;74.50;;;;;;5027749;28;20022;-78
2022/09/17 03:02:58;;;;;;;0.00;0.00;;;9.40;74.30;;;;;;5026306;28;20032;-79
2022/09/17 03:05:26;;;;;;;0.00;0.00;;;9.30;74.10;;;;;;5026233;28;20037;-79
2022/09/17 03:07:55;;;;;;;0.00;0.00;;;9.30;74.10;;;;;;5010028;28;20029;-78
2022/09/17 03:10:21;;;;;;;0.00;0.00;;;9.40;74.20;;;;;;5026274;28;20030;-78
2022/09/17 03:12:47;;;;;;;0.00;0.00;;;9.30;74.20;;;;;;5009828;28;20079;-78
2022/09/17 03:15:13;;;;;;;0.00;0.00;;;9.40;74.20;;;;;;5027553;28;20033;-79
2022/09/17 03:17:39;;;;;;;0.00;0.00;;;9.40;74.10;;;;;;5026217;28;20036;-79
2022/09/17 03:20:05;;;;;;;0.10;0.10;;;9.40;73.90;;;;;;5027290;28;20039;-79
2022/09/17 03:22:31;;;;;;;0.00;0.00;;;9.30;73.80;;;;;;5027578;28;20033;-78
2022/09/17 03:24:56;;;;;;;0.00;0.00;;;9.20;73.70;;;;;;5027319;28;20055;-79
2022/09/17 03:27:22;;;;;;;0.00;0.00;;;9.10;73.70;;;;;;5009742;28;20142;-79
2022/09/17 03:29:48;;;;;;;0.00;0.00;;;9.00;73.60;;;;;;5027317;28;20105;-79
2022/09/17 03:32:13;;;;;;;0.00;0.00;;;9.00;73.70;;;;;;5027394;28;20029;-79
2022/09/17 03:34:39;;;;;;;0.00;0.00;;;8.90;73.70;;;;;;5009668;28;20479;-79
2022/09/17 03:37:05;;;;;;;0.00;0.00;;;8.90;73.80;;;;;;5025923;28;20029;-79
2022/09/17 03:39:30;;;;;;;0.00;0.00;;;8.80;73.80;;;;;;5009568;28;20132;-79
2022/09/17 03:41:56;;;;;;;0.00;0.00;;;8.80;73.80;;;;;;5009576;28;20124;-79
2022/09/17 03:44:22;;;;;;;0.00;0.00;;;8.80;73.80;;;;;;5027248;28;20029;-78
2022/09/17 03:46:49;;;;;;;0.00;0.00;;;8.80;73.80;;;;;;5009654;28;20060;-79
2022/09/17 03:49:14;;;;;;;;;;;8.70;73.80;;;;;;5009719;28;20057;-79
2022/09/17 03:51:40;;;;;;;0.00;0.00;;;8.70;73.80;;;;;;5027449;28;19913;-78
2022/09/17 03:54:06;;;;;;;0.00;0.00;;;8.60;73.90;;;;;;5026136;28;20036;-78
2022/09/17 03:56:32;;;;;;;0.00;0.00;;;8.60;74.00;;;;;;5027214;28;20036;-79
2022/09/17 03:58:59;;;;;;;0.00;0.00;;;8.60;74.10;;;;;;5025630;28;20049;-78
2022/09/17 04:01:25;;;;;;;0.00;0.00;;;8.70;74.20;;;;;;5025821;28;20037;-79
2022/09/17 04:03:51;;;;;;;0.00;0.00;;;8.70;74.10;;;;;;5026038;28;20060;-79
2022/09/17 04:06:17;;;;;;;0.00;0.00;;;8.80;74.60;;;;;;4996491;28;20037;-78
2022/09/17 04:08:42;;;;;;;0.00;0.00;;;8.80;74.00;;;;;;5029535;28;20052;-79
2022/09/17 04:11:09;;;;;;;0.00;0.00;;;8.80;74.00;;;;;;5031036;28;20030;-79
2022/09/17 04:13:35;;;;;;;0.00;0.00;;;8.80;73.90;;;;;;5031078;28;20460;-79
2022/09/17 04:16:01;;;;;;;0.00;0.00;;;8.80;73.90;;;;;;5029759;28;20052;-79
2022/09/17 04:18:27;;;;;;;0.00;0.00;;;8.80;73.80;;;;;;5030645;28;20075;-78
2022/09/17 04:20:52;;;;;;;0.00;0.00;;;8.80;73.80;;;;;;5029547;28;20481;-79
2022/09/17 04:23:19;;;;;;;0.10;0.10;;;8.80;73.80;;;;;;5029802;28;20033;-78
2022/09/17 04:25:44;;;;;;;0.00;0.00;;;8.80;73.70;;;;;;5029401;28;20040;-79
2022/09/17 04:28:10;;;;;;;0.00;0.00;;;8.80;73.70;;;;;;5029239;28;20481;-78
2022/09/17 04:30:36;;;;;;;0.00;0.00;;;8.70;73.70;;;;;;5030511;28;20104;-78
2022/09/17 04:33:02;;;;;;;0.08;0.08;;;8.70;73.70;;;;;;5012974;28;20112;-78
2022/09/17 04:35:28;;;;;;;0.00;0.00;;;8.70;73.70;;;;;;5030570;28;20080;-78
2022/09/17 04:37:57;;;;;;;0.00;0.00;;;8.70;73.70;;;;;;5029311;28;20037;-78
2022/09/17 04:40:25;;;;;;;0.00;0.00;;;8.60;73.70;;;;;;5029209;28;20033;-79
2022/09/17 04:42:55;;;;;;;0.00;0.00;;;8.60;74.30;;;;;;5030386;28;20108;-78
2022/09/17 04:45:21;;;;;;;0.05;0.05;;;8.60;73.80;;;;;;5030616;28;20037;-78
2022/09/17 04:47:49;;;;;;;0.10;0.10;;;8.60;73.80;;;;;;5030226;28;20025;-78
2022/09/17 04:50:18;;;;;;;0.00;0.00;;;8.60;73.80;;;;;;5028501;28;20072;-79
2022/09/17 04:52:44;;;;;;;0.00;0.00;;;8.50;73.70;;;;;;5028821;28;20064;-78
2022/09/17 04:55:10;;;;;;;;;;;8.50;73.80;;;;;;5030576;28;20517;-78
2022/09/17 04:57:36;;;;;;;0.00;0.00;;;8.40;73.70;;;;;;5030156;28;19905;-78
2022/09/17 05:00:05;;;;;;;0.00;0.00;;;8.40;73.70;;;;;;5030055;28;20413;-78
2022/09/17 05:02:31;;;;;;;0.10;0.10;;;8.40;73.80;;;;;;5030076;28;20046;-78
2022/09/17 05:04:57;;;;;;;0.10;0.10;;;8.40;73.90;;;;;;5030028;28;20432;-78
2022/09/17 05:07:23;;;;;;;0.00;0.00;;;8.40;73.80;;;;;;5028557;28;20040;-78
2022/09/17 05:09:49;;;;;;;0.03;0.03;;;8.30;73.80;;;;;;5029815;28;20033;-79
2022/09/17 05:12:15;;;;;;;0.10;0.10;;;8.30;73.90;;;;;;5028545;28;20047;-79
2022/09/17 05:14:40;;;;;;;3.53;0.30;;;8.30;73.90;;;;;;5029713;28;20037;-79
2022/09/17 05:17:06;;;;;;;0.10;0.10;;;8.30;73.80;;;;;;5027392;28;20087;-79
2022/09/17 05:19:32;;;;;;;0.10;0.10;;;8.30;73.90;;;;;;5028283;28;20029;-78
2022/09/17 05:21:57;;;;;;;0.10;0.10;;;8.30;73.90;;;;;;5028196;28;20033;-78
2022/09/17 05:24:23;;;;;;;0.00;0.00;;;8.30;73.80;;;;;;5029679;28;20060;-78
2022/09/17 05:26:49;;;;;;;0.00;0.00;;;8.20;73.80;;;;;;5029561;28;20033;-78
2022/09/17 05:29:15;;;;;;;0.10;0.10;;;8.20;73.90;;;;;;5028079;28;20112;-79
2022/09/17 05:31:40;;;;;;;0.10;0.10;;;8.20;73.90;;;;;;5028142;28;20091;-78
2022/09/17 05:34:07;;;;;;;0.10;0.10;;;8.20;73.90;;;;;;5011781;28;20025;-79
2022/09/17 05:36:32;;;;;;;0.10;0.10;;;8.20;73.80;;;;;;5027889;28;20030;-79
2022/09/17 05:38:59;;;;;;;0.10;0.10;;;8.20;73.80;;;;;;5029318;28;20433;-79
2022/09/17 05:41:24;;;;;;;0.10;0.10;;;8.20;73.80;;;;;;5028087;28;20034;-79
2022/09/17 05:43:50;;;;;;;0.20;0.20;;;8.20;73.80;;;;;;5029170;28;20378;-78
2022/09/17 05:46:16;;;;;;;0.20;0.20;;;8.20;73.80;;;;;;5027977;28;20281;-78
2022/09/17 05:48:42;;;;;;;0.20;0.20;;;8.20;73.80;;;;;;5029169;28;20470;-79
2022/09/17 05:51:08;;;;;;;0.00;0.00;;;8.10;73.80;;;;;;5027733;28;20045;-78
2022/09/17 05:53:33;;;;;;;0.10;0.10;;;8.10;73.80;;;;;;5027553;28;20084;-78
2022/09/17 05:55:59;;;;;;;0.20;0.20;;;8.10;73.90;;;;;;5027675;28;20065;-79
2022/09/17 05:58:26;;;;;;;0.20;0.20;;;8.10;73.80;;;;;;5027708;28;20088;-79
2022/09/17 06:00:52;;;;;;;0.10;0.10;;;8.10;73.80;;;;;;5010886;28;20125;-78
2022/09/17 06:03:19;;;;;;;0.20;0.20;;;8.10;73.70;;;;;;5028946;28;20401;-79
2022/09/17 06:05:57;;;;;;;0.10;0.10;;;8.10;73.70;;;;;;5028637;28;20371;-78
2022/09/17 06:08:23;;;;;;;0.10;0.10;;;8.10;73.70;;;;;;5027343;28;20021;-79
2022/09/17 06:10:50;;;;;;;0.10;0.10;;;8.10;73.80;;;;;;5028693;28;20017;-79
2022/09/17 06:13:19;;;;;;;0.10;0.10;;;8.10;73.90;;;;;;5027437;28;20025;-79
2022/09/17 06:15:54;;;;;;;0.20;0.20;;;8.10;73.90;;;;;;5027298;28;20032;-79
2022/09/17 06:18:20;;;;;;;0.10;0.10;;;8.20;74.00;;;;;;5028434;28;20420;-78
2022/09/17 06:20:57;;;;;;;0.20;0.20;;;8.20;73.90;;;;;;5027105;28;20032;-79
2022/09/17 06:23:23;;;;;;;;;;;8.20;73.90;;;;;;5027457;28;20041;-79
2022/09/17 06:25:55;;;;;;;0.10;0.10;;;8.30;73.90;;;;;;5026941;28;19951;-78
2022/09/17 06:28:21;;;;;;;0.20;0.20;;;8.30;73.90;;;;;;5027863;28;20049;-78
2022/09/17 06:30:47;;;;;;;0.10;0.10;;;8.40;74.00;;;;;;5028105;28;20079;-78
2022/09/17 06:33:13;;;;;;;0.20;0.20;;;8.40;74.10;;;;;;5026809;28;20029;-79
2022/09/17 06:35:39;;;;;;;0.20;0.20;;;8.50;74.10;;;;;;5010484;28;20036;-79
2022/09/17 06:38:05;;;;;;;0.20;0.20;;;8.60;74.10;;;;;;5026689;28;20033;-79
2022/09/17 06:40:31;;;;;;;0.13;0.13;;;8.70;74.00;;;;;;5010456;28;20042;-79
2022/09/17 06:42:58;;;;;;;0.10;0.10;;;8.70;74.00;;;;;;5028045;28;20037;-78
2022/09/17 06:45:24;;;;;;;0.10;0.10;;;8.80;74.00;;;;;;5010699;28;20336;-78
2022/09/17 06:47:50;;;;;;;;;;;8.80;74.00;;;;;;5028460;28;20393;-78
2022/09/17 06:50:16;;;;;;;0.10;0.10;;;8.90;74.10;;;;;;5027611;28;19917;-78
2022/09/17 06:52:49;;;;;;;0.10;0.10;;;8.90;73.90;;;;;;5026680;28;20128;-78
2022/09/17 06:55:15;;;;;;;0.10;0.10;;;9.00;74.10;;;;;;5026844;28;20025;-78
2022/09/17 06:57:41;;;;;;;0.10;0.10;;;9.00;74.00;;;;;;5026388;28;20036;-78
2022/09/17 07:00:08;;;;;;;0.20;0.20;;;9.10;74.10;;;;;;5027702;28;20076;-79
2022/09/17 07:02:34;;;;;;;0.20;0.20;;;9.20;74.20;;;;;;5026195;28;20486;-79
2022/09/17 07:05:00;;;;;;;0.13;0.13;;;9.30;74.20;;;;;;5027582;28;20045;-78
2022/09/17 07:07:25;;;;;;;0.10;0.10;;;9.30;74.10;;;;;;5026102;28;20523;-79
2022/09/17 07:09:52;;;;;;;0.20;0.20;;;9.40;74.00;;;;;;5010315;28;20033;-79
2022/09/17 07:12:18;;;;;;;0.20;0.20;;;9.40;74.00;;;;;;5009847;28;20493;-79
2022/09/17 07:14:46;;;;;;;0.17;0.17;;;9.40;73.90;;;;;;5009759;28;20034;-79
2022/09/17 07:17:13;;;;;;;0.20;0.20;;;9.40;74.00;;;;;;5027445;28;20567;-78
2022/09/17 07:19:38;;;;;;;0.10;0.10;;;9.40;73.90;;;;;;5027583;28;20025;-79
2022/09/17 07:22:04;;;;;;;0.10;0.10;;;9.50;74.00;;;;;;5026124;28;20363;-78
2022/09/17 07:24:30;;;;;;;0.10;0.10;;;9.50;74.00;;;;;;5009528;28;20048;-78
2022/09/17 07:26:56;;;;;;;0.10;0.10;;;9.50;74.00;;;;;;5025812;28;20494;-78
2022/09/17 07:29:25;;;;;;;0.00;0.00;;;9.60;74.10;;;;;;5025677;28;20117;-79
2022/09/17 07:31:51;;;;;;;0.10;0.10;;;9.70;74.20;;;;;;5027476;28;20037;-78
2022/09/17 07:34:16;;;;;;;0.10;0.10;;;9.70;74.30;;;;;;5025821;28;20389;-78
2022/09/17 07:36:43;;;;;;;0.10;0.10;;;9.80;74.30;;;;;;5009569;28;20030;-77
2022/09/17 07:39:10;;;;;;;0.10;0.10;;;9.90;74.20;;;;;;5026109;28;20036;-78
2022/09/17 07:41:36;;;;;;;0.10;0.10;;;10.00;74.20;;;;;;5013819;28;20488;-79
2022/09/17 07:44:02;;;;;;;0.10;0.10;;;10.20;74.40;;;;;;5013441;28;20061;-79
2022/09/17 07:46:28;;;;;;;0.10;0.10;;;10.30;74.30;;;;;;5029927;28;20034;-78
2022/09/17 07:48:54;;;;;;;0.10;0.10;;;10.40;74.10;;;;;;5029226;28;20030;-78
2022/09/17 07:51:22;;;;;;;0.10;0.10;;;10.60;74.10;;;;;;5013405;28;20110;-79
2022/09/17 07:53:56;;;;;;;0.10;0.10;;;10.70;74.10;;;;;;5030818;28;20022;-79
2022/09/17 07:56:23;;;;;;;0.20;0.20;;;10.90;74.10;;;;;;5029510;28;20424;-78
2022/09/17 07:58:49;;;;;;;0.10;0.10;;;11.10;74.20;;;;;;5029360;28;20105;-78
2022/09/17 08:01:16;;;;;;;0.13;0.13;;;11.40;74.30;;;;;;5013016;28;20037;-77
2022/09/17 08:03:43;;;;;;;0.10;0.10;;;11.60;74.20;;;;;;5029293;28;20398;-79
2022/09/17 08:06:11;;;;;;;0.10;0.10;;;11.80;74.20;;;;;;5012273;28;20124;-79
2022/09/17 08:08:38;;;;;;;0.20;0.20;;;12.00;74.20;;;;;;5029057;28;20188;-79
2022/09/17 08:11:10;;;;;;;0.10;0.10;;;12.20;74.20;;;;;;5012827;28;20021;-78
2022/09/17 08:13:36;;;;;;;0.10;0.10;;;12.50;74.40;;;;;;5029397;28;20394;-78
2022/09/17 08:16:08;;;;;;;0.00;0.00;;;12.80;74.30;;;;;;5028991;28;20022;-79
2022/09/17 08:18:34;;;;;;;0.00;0.00;;;13.10;74.10;;;;;;5028597;28;20025;-78
2022/09/17 08:21:02;;;;;;;0.00;0.00;;;13.30;74.00;;;;;;5028308;28;20320;-79
2022/09/17 08:23:29;;;;;;;0.00;0.00;;;13.50;74.10;;;;;;5030210;28;20041;-78
2022/09/17 08:25:59;;;;;;;0.00;0.00;;;13.70;74.10;;;;;;5030182;28;20212;-79
2022/09/17 08:28:28;;;;;;;0.00;0.00;;;13.80;74.00;;;;;;5029921;28;20095;-79
2022/09/17 08:30:58;;;;;;;0.00;0.00;;;13.90;74.20;;;;;;5030107;28;20029;-79
2022/09/17 08:33:24;;;;;;;0.00;0.00;;;14.10;74.50;;;;;;5028646;28;20535;-79
2022/09/17 08:35:58;;;;;;;0.00;0.00;;;14.50;74.50;;;;;;4996102;28;20029;-79
2022/09/17 08:38:37;;;;;;;0.00;0.00;;;14.80;74.40;;;;;;5030322;28;20084;-79
2022/09/17 08:41:10;;;;;;;0.00;0.00;;;15.10;74.50;;;;;;5028700;28;20029;-79
2022/09/17 08:44:06;;;;;;;0.00;0.00;;;15.30;74.50;;;;;;5030201;28;20104;-79
2022/09/17 08:46:44;;;;;;;0.00;0.00;;;15.60;74.50;;;;;;5030116;28;20110;-79
2022/09/17 08:49:27;;;;;;;0.00;0.00;;;15.90;74.70;;;;;;5028278;28;20026;-78
2022/09/17 08:52:14;;;;;;;0.28;0.28;;;16.20;74.60;;;;;;5029932;28;20033;-76
2022/09/17 08:54:52;;;;;;;;;;;16.40;74.20;;;;;;5029778;28;20029;-78
2022/09/17 08:57:41;;;;;;;0.00;0.00;;;16.60;74.40;;;;;;5030358;28;19905;-78
2022/09/17 09:00:13;;;;;;;0.00;0.00;;;17.00;74.60;;;;;;5031364;28;20024;-78
2022/09/17 09:02:48;;;;;;;0.00;0.00;;;17.20;74.40;;;;;;5029989;28;20056;-77
2022/09/17 09:05:55;;;;;;;0.00;0.00;;;17.80;75.90;;;;;;5030564;28;20529;-78
2022/09/17 09:08:46;;;;;;;0.00;0.00;;;19.00;76.70;;;;;;4988809;28;20545;-77
2022/09/17 09:11:26;;;;;;;0.00;0.00;;;20.80;76.40;;;;;;5029531;28;20042;-78
2022/09/17 09:14:10;;;;;;;0.00;0.00;;;22.10;76.00;;;;;;5029871;28;20390;-76
2022/09/17 09:16:39;;;;;;;0.00;0.00;;;23.10;76.00;;;;;;5029241;28;20040;-75
2022/09/17 09:19:21;;;;;;;0.00;0.00;;;24.00;75.60;;;;;;5030213;28;20059;-76
2022/09/17 09:21:56;;;;;;;0.00;0.00;;;24.80;75.20;;;;;;5030060;28;20066;-75
2022/09/17 09:24:25;;;;;;;0.00;0.00;;;25.30;74.70;;;;;;5029329;28;20025;-75
2022/09/17 09:27:16;;;;;;;0.00;0.00;;;25.90;75.10;;;;;;5029484;28;20075;-76
2022/09/17 09:30:08;;;;;;;0.00;0.00;;;26.30;75.10;;;;;;5029793;28;20393;-80
2022/09/17 09:32:42;;;;;;;0.00;0.00;;;26.60;75.00;;;;;;5029674;28;20048;-76
2022/09/17 09:35:28;;;;;;;0.00;0.00;;;26.40;74.30;;;;;;5027922;28;20417;-76
2022/09/17 09:38:22;;;;;;;0.00;0.00;;;26.40;75.00;;;;;;5029373;28;20410;-76
2022/09/17 09:41:14;;;;;;;0.00;0.00;;;26.50;75.30;;;;;;5018272;28;20106;-76
2022/09/17 09:43:44;;;;;;;0.00;0.00;;;26.90;75.30;;;;;;5027960;28;20075;-76
2022/09/17 09:46:40;;;;;;;0.00;0.00;;;27.30;75.60;;;;;;5028909;28;20022;-76
2022/09/17 09:49:24;;;;;;;0.00;0.00;;;27.70;75.60;;;;;;5026064;28;20481;-76
2022/09/17 09:52:27;;;;;;;0.00;0.00;;;28.00;75.50;;;;;;5026825;28;20511;-76
2022/09/17 09:55:30;;;;;;;0.00;0.00;;;28.30;75.60;;;;;;5025724;28;20100;-76
2022/09/17 09:58:08;;;;;;;0.00;0.00;;;28.40;75.40;;;;;;5008750;28;20026;-76
2022/09/17 10:00:38;;;;;;;0.00;0.00;;;28.70;76.20;;;;;;5010339;28;20076;-79
2022/09/17 10:03:24;;;;;;;0.00;0.00;;;29.00;76.50;;;;;;5009626;28;20025;-79
2022/09/17 10:06:05;;;;;;;0.00;0.00;;;29.20;76.90;;;;;;5010339;28;20022;-76
2022/09/17 10:08:36;;;;;;;0.00;0.00;;;29.60;77.00;;;;;;5009835;28;20042;-79
2022/09/17 10:11:03;;;;;;;0.00;0.00;;;29.70;76.80;;;;;;5008351;28;20109;-78
2022/09/17 10:13:35;;;;;;;0.00;0.00;;;29.90;76.70;;;;;;5009799;28;20031;-76
2022/09/17 10:16:24;;;;;;;0.00;0.00;;;29.80;77.20;;;;;;5009339;28;20033;-77
2022/09/17 10:19:17;;;;;;;0.00;0.00;;;30.10;77.60;;;;;;5009403;28;20033;-77
2022/09/17 10:21:43;;;;;;;0.00;0.00;;;30.50;77.80;;;;;;5009896;28;20514;-80
2022/09/17 10:24:28;;;;;;;0.00;0.00;;;30.90;77.10;;;;;;5008331;28;20061;-75
2022/09/17 10:27:04;;;;;;;0.00;0.00;;;30.80;77.50;;;;;;5008106;28;20037;-78
2022/09/17 10:29:30;;;;;;;0.00;0.00;;;31.10;77.50;;;;;;5009196;28;20028;-75
2022/09/17 10:31:57;;;;;;;0.00;0.00;;;30.60;76.80;;;;;;5009581;28;20053;-77
2022/09/17 10:34:31;;;;;;;0.00;0.00;;;29.70;76.90;;;;;;5009741;28;20026;-79
2022/09/17 10:36:57;;;;;;;0.00;0.00;;;28.60;76.40;;;;;;5009512;28;20161;-73
2022/09/17 10:39:26;;;;;;;0.00;0.00;;;27.30;76.50;;;;;;5009273;28;20061;-77
2022/09/17 10:42:00;;;;;;;0.00;0.00;;;26.30;77.20;;;;;;5007495;28;20040;-76
2022/09/17 10:44:28;;;;;;;0.00;0.00;;;26.00;78.30;;;;;;5009038;28;20022;-79
2022/09/17 10:47:11;;;;;;;0.00;0.00;;;25.50;78.20;;;;;;5008353;28;20121;-75
2022/09/17 10:49:47;;;;;;;0.00;0.00;;;25.10;78.40;;;;;;5007387;28;20123;-77
2022/09/17 10:52:21;;;;;;;0.00;0.00;;;24.90;78.20;;;;;;5007379;28;20359;-77
2022/09/17 10:55:00;;;;;;;0.00;0.00;;;24.60;78.00;;;;;;5008549;28;20029;-76
2022/09/17 10:57:45;;;;;;;0.00;0.00;;;24.20;78.20;;;;;;5012472;28;20038;-76
2022/09/17 11:00:15;;;;;;;0.03;0.00;;;24.10;78.20;;;;;;5027324;28;20022;-77
2022/09/17 11:02:41;;;;;;;0.00;0.00;;;23.70;77.40;;;;;;5027865;28;20040;-77
2022/09/17 11:05:25;;;;;;;0.00;0.00;;;23.20;77.50;;;;;;5026459;28;20723;-76
2022/09/17 11:08:43;;;;;;;0.00;0.00;;;22.80;77.40;;;;;;5026842;28;20033;-76
2022/09/17 11:11:18;;;;;;;0.00;0.00;;;22.20;77.30;;;;;;5000821;28;20477;-76
2022/09/17 11:14:07;;;;;;;0.00;0.00;;;22.30;79.90;;;;;;5015031;28;20029;-76
2022/09/17 11:16:45;;;;;;;0.00;0.00;;;23.60;81.00;;;;;;5021529;28;20410;-78
2022/09/17 11:19:23;;;;;;;0.00;0.00;;;25.10;79.60;;;;;;5026502;28;20430;-77
2022/09/17 11:22:01;;;;;;;0.00;0.00;;;26.20;79.80;;;;;;5026797;28;20120;-80
2022/09/17 11:24:44;;;;;;;0.00;0.00;;;27.40;79.20;;;;;;5028022;28;20470;-76
2022/09/17 11:27:21;;;;;;;0.00;0.00;;;28.10;77.90;;;;;;5019960;28;20066;-77
2022/09/17 11:30:11;;;;;;;0.00;0.00;;;27.50;76.60;;;;;;5028506;28;20075;-78
2022/09/17 11:33:11;;;;;;;0.00;0.00;;;26.50;76.40;;;;;;5018908;28;20605;-78
2022/09/17 11:35:44;;;;;;;0.00;0.00;;;25.60;77.50;;;;;;5028587;28;20044;-77
2022/09/17 11:38:38;;;;;;;0.00;0.00;;;25.80;79.60;;;;;;5026160;28;20033;-79
2022/09/17 11:41:12;;;;;;;0.00;0.00;;;26.80;79.90;;;;;;5019356;28;20175;-79
2022/09/17 11:43:47;;;;;;;0.00;0.00;;;26.90;78.30;;;;;;5028493;28;20022;-79
2022/09/17 11:46:16;;;;;;;0.00;0.00;;;26.30;77.50;;;;;;5027832;28;20378;-77
2022/09/17 11:49:03;;;;;;;0.00;0.00;;;25.60;77.30;;;;;;5028179;28;20087;-75
2022/09/17 11:51:49;;;;;;;0.00;0.00;;;24.70;77.30;;;;;;5027440;28;20078;-78
2022/09/17 11:54:21;;;;;;;0.00;0.00;;;23.90;77.80;;;;;;5028479;28;20038;-78
2022/09/17 11:56:50;;;;;;;0.00;0.00;;;24.10;80.00;;;;;;5026231;28;20178;-78
2022/09/17 11:59:25;;;;;;;0.00;0.00;;;25.40;80.40;;;;;;5027886;28;20018;-78
2022/09/17 12:01:59;;;;;;;0.00;0.00;;;27.00;79.90;;;;;;5027137;28;20096;-78
2022/09/17 12:04:48;;;;;;;0.00;0.00;;;28.30;79.40;;;;;;5026172;28;20098;-80
2022/09/17 12:07:30;;;;;;;0.00;0.00;;;29.40;78.10;;;;;;5028083;28;20033;-79
2022/09/17 12:10:05;;;;;;;0.00;0.00;;;28.90;76.70;;;;;;5010154;28;20029;-77
2022/09/17 12:12:31;;;;;;;0.00;0.00;;;27.90;76.40;;;;;;5025347;28;20021;-75
2022/09/17 12:15:12;;;;;;;0.00;0.00;;;27.00;76.70;;;;;;5024848;28;20089;-75
2022/09/17 12:17:48;;;;;;;0.00;0.00;;;26.10;76.80;;;;;;5025526;28;20035;-79
2022/09/17 12:20:35;;;;;;;0.00;0.00;;;25.30;77.20;;;;;;5027847;28;20026;-77
2022/09/17 12:23:10;;;;;;;0.00;0.00;;;25.50;79.10;;;;;;5028639;28;20033;-79
2022/09/17 12:25:54;;;;;;;0.00;0.00;;;26.30;79.30;;;;;;5029144;28;20021;-80
2022/09/17 12:28:56;;;;;;;0.00;0.00;;;27.20;79.70;;;;;;5024768;28;20070;-77
2022/09/17 12:31:54;;;;;;;0.00;0.00;;;27.90;77.50;;;;;;5029434;28;20038;-79
2022/09/17 12:34:56;;;;;;;0.00;0.00;;;27.40;75.80;;;;;;5031380;28;20035;-77
2022/09/17 12:37:46;;;;;;;0.00;0.00;;;26.40;75.60;;;;;;5029669;28;20025;-77
2022/09/17 12:40:31;;;;;;;0.00;0.00;;;25.50;76.60;;;;;;5031505;28;20026;-80
2022/09/17 12:43:06;;;;;;;0.00;0.00;;;25.10;77.90;;;;;;5028897;28;20025;-78
2022/09/17 12:45:48;;;;;;;0.00;0.00;;;25.00;79.00;;;;;;5029456;28;20052;-78
2022/09/17 12:48:51;;;;;;;0.00;0.00;;;25.40;79.80;;;;;;5029591;28;20029;-76
2022/09/17 12:51:44;;;;;;;0.00;0.00;;;25.90;80.00;;;;;;5030122;28;20030;-77
2022/09/17 12:54:49;;;;;;;0.00;0.00;;;26.80;79.60;;;;;;5030566;28;20027;-77
2022/09/17 12:57:39;;;;;;;0.00;0.00;;;27.60;79.00;;;;;;5030660;28;20024;-76
2022/09/17 13:00:12;;;;;;;0.00;0.00;;;28.00;77.90;;;;;;5030179;28;20466;-76
2022/09/17 13:02:50;;;;;;;0.00;0.00;;;27.70;77.20;;;;;;5029782;28;20021;-75
2022/09/17 13:05:25;;;;;;;0.00;0.00;;;27.30;76.60;;;;;;5029848;28;20025;-78
2022/09/17 13:08:03;;;;;;;0.00;0.00;;;26.70;76.00;;;;;;5030434;28;20109;-77
2022/09/17 13:11:08;;;;;;;0.00;0.00;;;26.30;76.60;;;;;;5030776;28;20028;-79
2022/09/17 13:13:58;;;;;;;0.00;0.00;;;26.40;77.90;;;;;;5015283;28;20491;-79
2022/09/17 13:16:47;;;;;;;0.00;0.00;;;26.90;77.80;;;;;;5030521;28;20041;-79
2022/09/17 13:19:28;;;;;;;0.03;0.00;;;26.30;76.60;;;;;;5029981;28;20055;-76
2022/09/17 13:22:02;;;;;;;0.00;0.00;;;25.40;76.20;;;;;;5029677;28;20025;-77
2022/09/17 13:24:30;;;;;;;0.00;0.00;;;24.90;77.20;;;;;;5030245;28;20036;-77
2022/09/17 13:26:57;;;;;;;0.00;0.00;;;24.80;78.30;;;;;;5030334;28;20076;-77